Time;durP1;ratioP1;P1;durP2;ratioP2;P2;SDS_P1;SDS_P2;PMS_P1;PMS_P2;Temp;Humidity;BMP_temperature;BMP_pressure;BME280_temperature;BME280_humidity;BME280_pressure;Samples;Min_cycle;Max_cycle;Signal;HPM_P1;HPM_P2
2022/06/24 00:01:13;;;;;;;10.33;9.43;;;21.80;99.90;;;;;;6211277;28;20249;-66
2022/06/24 00:04:22;;;;;;;11.43;8.47;;;21.80;99.90;;;;;;6216443;28;20735;-66
2022/06/24 00:07:26;;;;;;;9.30;8.60;;;21.70;99.90;;;;;;6225872;28;20236;-66
2022/06/24 00:10:34;;;;;;;10.60;9.70;;;21.70;99.90;;;;;;6208396;28;20233;-66
2022/06/24 00:13:39;;;;;;;9.07;8.27;;;21.70;99.90;;;;;;6219652;28;20251;-66
2022/06/24 00:16:56;;;;;;;10.87;9.97;;;21.60;99.90;;;;;;6206410;28;20233;-67
2022/06/24 00:20:01;;;;;;;8.70;7.93;;;21.70;99.90;;;;;;6222681;28;20638;-67
2022/06/24 00:23:10;;;;;;;9.20;8.50;;;21.60;99.90;;;;;;6225269;28;20248;-67
2022/06/24 00:26:15;;;;;;;9.03;8.20;;;21.50;99.90;;;;;;6202216;28;20230;-67
2022/06/24 00:29:18;;;;;;;10.57;9.00;;;21.50;99.90;;;;;;6225593;28;20235;-67
2022/06/24 00:32:31;;;;;;;9.70;8.67;;;21.50;99.90;;;;;;6216792;28;20252;-67
2022/06/24 00:35:38;;;;;;;11.43;9.50;;;21.40;99.90;;;;;;6225597;28;20566;-67
2022/06/24 00:38:42;;;;;;;12.73;8.87;;;21.40;99.90;;;;;;6223299;28;20219;-67
2022/06/24 00:41:53;;;;;;;9.83;9.13;;;21.40;99.90;;;;;;6204603;28;20687;-66
2022/06/24 00:45:09;;;;;;;9.63;8.90;;;21.40;99.90;;;;;;6220988;28;20230;-67
2022/06/24 00:48:15;;;;;;;10.30;9.50;;;21.40;99.90;;;;;;6207620;28;20237;-66
2022/06/24 00:51:20;;;;;;;10.27;9.47;;;21.40;99.90;;;;;;6225569;28;20229;-67
2022/06/24 00:54:25;;;;;;;9.93;8.93;;;21.40;99.90;;;;;;6216819;28;20234;-67
2022/06/24 00:57:35;;;;;;;10.00;9.00;;;21.30;99.90;;;;;;6209802;28;20240;-67
2022/06/24 01:00:38;;;;;;;9.80;8.80;;;21.30;99.90;;;;;;6225255;28;20537;-67
2022/06/24 01:03:42;;;;;;;10.83;9.90;;;21.30;99.90;;;;;;6214754;28;20663;-67
2022/06/24 01:06:46;;;;;;;11.23;10.17;;;21.30;99.90;;;;;;6212405;28;20229;-66
2022/06/24 01:09:49;;;;;;;10.63;9.23;;;21.20;99.90;;;;;;6213699;28;20240;-67
2022/06/24 01:12:53;;;;;;;9.73;8.93;;;21.20;99.90;;;;;;6212739;28;20251;-67
2022/06/24 01:15:56;;;;;;;9.57;8.70;;;21.10;99.90;;;;;;6216449;28;20230;-67
2022/06/24 01:19:01;;;;;;;10.47;9.67;;;21.10;99.90;;;;;;6217898;28;20237;-67
2022/06/24 01:22:06;;;;;;;9.87;8.97;;;21.10;99.90;;;;;;6215367;28;20249;-67
2022/06/24 01:25:10;;;;;;;11.00;9.97;;;21.00;99.90;;;;;;6218993;28;20237;-67
2022/06/24 01:28:13;;;;;;;10.90;10.07;;;20.90;99.90;;;;;;6213996;28;20555;-67
2022/06/24 01:31:16;;;;;;;10.87;10.07;;;20.90;99.90;;;;;;6219996;28;20224;-67
2022/06/24 01:34:21;;;;;;;10.30;9.30;;;20.90;99.90;;;;;;6219298;28;20685;-67
2022/06/24 01:37:26;;;;;;;9.27;8.67;;;20.80;99.90;;;;;;6212213;28;20236;-67
2022/06/24 01:40:29;;;;;;;10.10;9.00;;;20.80;99.90;;;;;;6221531;28;20692;-67
2022/06/24 01:43:32;;;;;;;10.40;9.60;;;20.90;99.90;;;;;;6228683;28;20241;-66
2022/06/24 01:46:36;;;;;;;10.93;10.07;;;20.80;99.90;;;;;;6228521;28;20232;-67
2022/06/24 01:49:40;;;;;;;9.97;9.27;;;20.80;99.90;;;;;;6209781;28;20729;-67
2022/06/24 01:52:44;;;;;;;10.40;9.60;;;20.90;99.90;;;;;;6223024;28;20233;-67
2022/06/24 01:55:47;;;;;;;9.13;8.37;;;21.00;99.90;;;;;;6208814;28;20666;-67
2022/06/24 01:58:51;;;;;;;10.40;9.53;;;20.90;99.90;;;;;;6224186;28;20252;-67
2022/06/24 02:01:54;;;;;;;10.43;9.10;;;20.90;99.90;;;;;;6207643;28;20248;-67
2022/06/24 02:04:57;;;;;;;9.93;9.03;;;20.80;99.90;;;;;;6236589;28;20220;-67
2022/06/24 02:08:02;;;;;;;9.80;9.00;;;20.80;99.90;;;;;;6252742;28;20243;-67
2022/06/24 02:14:38;;;;;;;9.73;9.03;;;20.70;99.90;;;;;;6225748;28;20324;-66
2022/06/24 02:17:47;;;;;;;9.47;8.77;;;20.80;99.90;;;;;;6253042;28;20225;-67
2022/06/24 02:20:50;;;;;;;8.47;7.80;;;20.90;99.90;;;;;;6253211;28;20240;-67
2022/06/24 02:23:55;;;;;;;9.07;8.37;;;21.00;99.90;;;;;;6252295;28;20232;-67
2022/06/24 02:26:58;;;;;;;9.33;8.63;;;20.90;99.90;;;;;;6251665;28;20220;-67
2022/06/24 02:30:01;;;;;;;9.03;8.30;;;20.90;99.90;;;;;;6252383;28;20239;-67
2022/06/24 02:33:04;;;;;;;9.60;8.70;;;20.80;99.90;;;;;;6252357;28;20243;-67
2022/06/24 02:36:08;;;;;;;8.43;7.63;;;20.80;99.90;;;;;;6247152;28;20229;-67
2022/06/24 02:39:13;;;;;;;9.20;8.50;;;20.70;99.90;;;;;;6252880;28;20676;-67
2022/06/24 02:42:16;;;;;;;9.23;8.53;;;20.70;99.90;;;;;;6252106;28;20240;-67
2022/06/24 02:45:19;;;;;;;9.43;8.63;;;20.70;99.90;;;;;;6251803;28;20562;-67
2022/06/24 02:48:23;;;;;;;9.30;8.60;;;20.60;99.90;;;;;;6251992;28;20251;-67
2022/06/24 02:51:26;;;;;;;9.50;8.63;;;20.70;99.90;;;;;;6252083;28;20224;-67
2022/06/24 02:54:31;;;;;;;10.20;9.40;;;20.70;99.90;;;;;;6251948;28;20228;-67
2022/06/24 02:57:34;;;;;;;10.70;9.47;;;20.70;99.90;;;;;;6251982;28;20665;-67
2022/06/24 03:00:39;;;;;;;11.53;9.40;;;20.80;99.90;;;;;;6252356;28;20224;-67
2022/06/24 03:03:42;;;;;;;9.97;9.10;;;20.80;99.90;;;;;;6251563;28;20233;-67
2022/06/24 03:06:45;;;;;;;10.43;9.30;;;20.80;99.90;;;;;;6251308;28;20746;-67
2022/06/24 03:09:50;;;;;;;10.00;9.20;;;20.80;99.90;;;;;;6251393;28;20236;-67
2022/06/24 03:12:53;;;;;;;11.03;10.13;;;20.90;99.90;;;;;;6251234;28;20232;-67
2022/06/24 03:15:56;;;;;;;10.10;9.17;;;20.90;99.90;;;;;;6251400;28;20228;-67
2022/06/24 03:18:59;;;;;;;9.87;9.07;;;20.90;99.90;;;;;;6251564;28;20224;-67
2022/06/24 03:22:03;;;;;;;10.27;9.47;;;20.90;99.90;;;;;;6251260;28;20675;-66
2022/06/24 03:25:09;;;;;;;10.00;9.30;;;20.90;99.90;;;;;;6250961;28;20894;-66
2022/06/24 03:28:12;;;;;;;9.47;8.67;;;20.90;99.90;;;;;;6251365;28;20339;-66
2022/06/24 03:31:15;;;;;;;9.47;8.77;;;20.80;99.90;;;;;;6250807;28;20228;-67
2022/06/24 03:34:19;;;;;;;9.60;8.90;;;20.80;99.90;;;;;;6250403;28;20243;-67
2022/06/24 03:37:22;;;;;;;9.20;8.30;;;20.80;99.90;;;;;;6250361;28;20235;-67
2022/06/24 03:40:27;;;;;;;9.37;8.57;;;20.80;99.90;;;;;;6250565;28;20236;-67
2022/06/24 03:43:30;;;;;;;9.20;8.50;;;20.90;99.90;;;;;;6250186;28;20254;-67
2022/06/24 03:46:33;;;;;;;9.60;8.80;;;20.90;99.90;;;;;;6250604;28;20239;-67
2022/06/24 03:49:36;;;;;;;9.87;9.03;;;20.80;99.90;;;;;;6250309;28;20231;-67
2022/06/24 03:52:39;;;;;;;8.90;8.20;;;20.80;99.90;;;;;;6250601;28;20564;-67
2022/06/24 03:55:48;;;;;;;11.23;10.27;;;20.80;99.90;;;;;;6250511;28;20239;-67
2022/06/24 03:58:51;;;;;;;9.87;9.07;;;20.80;99.90;;;;;;6250399;28;20224;-66
2022/06/24 04:01:55;;;;;;;9.70;9.00;;;20.80;99.90;;;;;;6249960;28;20228;-67
2022/06/24 04:04:58;;;;;;;9.03;8.27;;;20.90;99.90;;;;;;6250176;28;20233;-67
2022/06/24 04:08:01;;;;;;;9.17;8.37;;;20.90;99.90;;;;;;6249976;28;20232;-67
2022/06/24 04:11:11;;;;;;;9.80;8.63;;;20.90;99.90;;;;;;6250363;28;20243;-67
2022/06/24 04:14:14;;;;;;;9.73;8.77;;;21.00;99.90;;;;;;6249916;28;20236;-67
2022/06/24 04:17:17;;;;;;;9.70;8.90;;;21.00;99.90;;;;;;6250356;28;20224;-67
2022/06/24 04:20:20;;;;;;;9.27;8.47;;;21.10;99.90;;;;;;6250311;28;20228;-67
2022/06/24 04:23:23;;;;;;;10.27;8.67;;;21.10;99.90;;;;;;6249564;28;20238;-67
2022/06/24 04:26:28;;;;;;;9.37;8.67;;;21.20;99.90;;;;;;6249768;28;20231;-67
2022/06/24 04:29:31;;;;;;;9.87;9.07;;;21.30;99.90;;;;;;6249869;28;20231;-67
2022/06/24 04:32:35;;;;;;;9.90;9.20;;;21.30;99.90;;;;;;6249640;28;20251;-67
2022/06/24 04:35:41;;;;;;;9.17;8.40;;;21.40;99.90;;;;;;6250698;28;20204;-67
2022/06/24 04:38:44;;;;;;;9.73;8.83;;;21.50;99.90;;;;;;6249903;28;20234;-67
2022/06/24 04:41:49;;;;;;;9.37;8.67;;;21.60;99.90;;;;;;6249807;28;20239;-67
2022/06/24 04:44:52;;;;;;;8.97;8.27;;;21.60;99.90;;;;;;6240941;28;20235;-67
2022/06/24 04:47:55;;;;;;;8.80;7.80;;;21.70;99.90;;;;;;6249714;28;20247;-66
2022/06/24 04:50:58;;;;;;;8.20;7.60;;;21.70;99.90;;;;;;6250082;28;20231;-67
2022/06/24 04:54:02;;;;;;;9.03;8.00;;;21.70;99.90;;;;;;6235002;28;20228;-67
2022/06/24 04:57:07;;;;;;;8.63;8.03;;;21.70;99.90;;;;;;6248848;28;20380;-66
2022/06/24 05:00:11;;;;;;;9.00;8.20;;;21.60;99.90;;;;;;6236090;28;20224;-65
2022/06/24 05:03:14;;;;;;;9.20;8.40;;;21.60;99.90;;;;;;6254463;28;20236;-64
2022/06/24 05:06:18;;;;;;;9.50;8.73;;;21.50;99.90;;;;;;6253747;28;20236;-65
2022/06/24 05:09:21;;;;;;;8.80;8.00;;;21.50;99.90;;;;;;6253772;28;20229;-65
2022/06/24 05:12:25;;;;;;;9.37;8.57;;;21.40;99.90;;;;;;6253301;28;20317;-65
2022/06/24 05:15:29;;;;;;;10.00;9.20;;;21.40;99.90;;;;;;6254075;28;20306;-65
2022/06/24 05:18:33;;;;;;;8.70;8.10;;;21.40;99.90;;;;;;6253849;28;20228;-65
2022/06/24 05:21:36;;;;;;;10.00;9.20;;;21.50;99.90;;;;;;6231337;28;20233;-65
2022/06/24 05:24:39;;;;;;;8.80;8.00;;;21.50;99.90;;;;;;6218901;28;20231;-65
2022/06/24 05:27:44;;;;;;;9.03;8.30;;;21.50;99.90;;;;;;6215237;28;20260;-66
2022/06/24 05:30:47;;;;;;;10.47;9.50;;;21.60;99.90;;;;;;6217843;28;20556;-65
2022/06/24 05:33:50;;;;;;;9.20;8.40;;;21.60;99.90;;;;;;6215660;28;20229;-65
2022/06/24 05:36:54;;;;;;;8.73;8.03;;;21.70;99.90;;;;;;6217023;28;20237;-68
2022/06/24 05:39:57;;;;;;;9.77;9.03;;;21.80;99.90;;;;;;6216855;28;20229;-69
2022/06/24 05:43:01;;;;;;;10.53;8.13;;;21.90;99.90;;;;;;6215799;28;20233;-69
2022/06/24 05:46:04;;;;;;;8.97;8.03;;;22.00;99.90;;;;;;6217502;28;20283;-68
2022/06/24 05:49:08;;;;;;;9.60;8.80;;;22.20;99.90;;;;;;6205327;28;20716;-68
2022/06/24 05:52:11;;;;;;;8.03;7.43;;;22.50;99.90;;;;;;6218447;28;20241;-68
2022/06/24 05:55:13;;;;;;;8.70;8.10;;;22.80;99.90;;;;;;6213724;28;20659;-69
2022/06/24 05:58:18;;;;;;;9.20;7.80;;;23.00;99.90;;;;;;6219308;28;20643;-68
2022/06/24 06:01:21;;;;;;;8.83;8.23;;;23.20;99.90;;;;;;6231033;28;20229;-68
2022/06/24 06:04:25;;;;;;;8.53;7.93;;;23.40;99.90;;;;;;6244462;28;20236;-67
2022/06/24 06:07:28;;;;;;;8.53;6.67;;;23.40;99.90;;;;;;6231292;28;20229;-67
2022/06/24 06:10:31;;;;;;;8.87;8.23;;;23.50;99.90;;;;;;6226349;28;20672;-66
2022/06/24 06:13:35;;;;;;;9.10;8.50;;;23.60;99.90;;;;;;6225072;28;20225;-67
2022/06/24 06:16:38;;;;;;;8.70;8.10;;;23.80;99.90;;;;;;6241213;28;20228;-66
2022/06/24 06:19:42;;;;;;;10.53;9.47;;;23.70;99.90;;;;;;6230924;28;20680;-68
2022/06/24 06:22:45;;;;;;;12.43;9.80;;;23.70;99.90;;;;;;6239124;28;20237;-69
2022/06/24 06:25:49;;;;;;;10.70;9.77;;;23.60;99.90;;;;;;6214615;28;20692;-69
2022/06/24 06:28:54;;;;;;;9.73;8.80;;;23.60;99.90;;;;;;6223163;28;20247;-69
2022/06/24 06:31:57;;;;;;;8.70;7.93;;;23.50;99.90;;;;;;6227500;28;21353;-68
2022/06/24 06:35:01;;;;;;;9.83;8.73;;;23.40;99.90;;;;;;6238281;28;20221;-69
2022/06/24 06:38:04;;;;;;;9.67;8.57;;;23.50;99.90;;;;;;6243436;28;20239;-69
2022/06/24 06:41:07;;;;;;;7.87;7.20;;;23.50;99.90;;;;;;6250233;28;20605;-68
2022/06/24 06:44:11;;;;;;;9.67;8.03;;;23.60;99.90;;;;;;6250665;28;20237;-67
2022/06/24 06:47:15;;;;;;;9.50;8.70;;;23.70;99.90;;;;;;6251986;28;20247;-68
2022/06/24 06:50:18;;;;;;;9.20;8.50;;;23.90;99.90;;;;;;6251871;28;20236;-69
2022/06/24 06:53:21;;;;;;;8.90;8.20;;;24.00;99.90;;;;;;6242287;28;20242;-68
2022/06/24 06:56:24;;;;;;;8.03;7.30;;;24.10;99.90;;;;;;6251358;28;20251;-68
2022/06/24 06:59:29;;;;;;;9.60;8.90;;;24.30;99.90;;;;;;6251453;28;20212;-69
2022/06/24 07:02:32;;;;;;;7.83;7.13;;;24.50;99.90;;;;;;6251360;28;20292;-68
2022/06/24 07:05:36;;;;;;;8.07;7.57;;;24.80;99.90;;;;;;6251123;28;20213;-68
2022/06/24 07:08:39;;;;;;;8.07;7.37;;;24.90;99.90;;;;;;6251069;28;20560;-68
2022/06/24 07:11:47;;;;;;;8.40;7.73;;;24.90;99.90;;;;;;6250581;28;20225;-68
2022/06/24 07:14:52;;;;;;;8.00;7.50;;;25.20;99.90;;;;;;6250821;28;20231;-69
2022/06/24 07:17:55;;;;;;;8.27;7.50;;;26.10;99.90;;;;;;6250601;28;20660;-69
2022/06/24 07:20:59;;;;;;;7.60;7.07;;;26.80;99.30;;;;;;6250841;28;20223;-69
2022/06/24 07:24:02;;;;;;;7.57;7.07;;;28.20;97.80;;;;;;6250946;28;20227;-68
2022/06/24 07:27:06;;;;;;;7.97;7.27;;;29.90;94.80;;;;;;6250568;28;20687;-68
2022/06/24 07:30:12;;;;;;;7.10;6.60;;;31.30;91.60;;;;;;6250673;28;20682;-69
2022/06/24 07:33:15;;;;;;;8.02;7.43;;;32.50;86.00;;;;;;6250548;28;20575;-68
2022/06/24 07:36:18;;;;;;;6.82;6.28;;;33.30;81.10;;;;;;6251249;28;20232;-69
2022/06/24 07:39:22;;;;;;;6.60;6.05;;;33.90;77.40;;;;;;6250249;28;20942;-69
2022/06/24 07:42:25;;;;;;;7.20;6.50;;;34.20;74.20;;;;;;6250635;28;20235;-68
2022/06/24 07:45:29;;;;;;;8.18;7.43;;;34.30;71.30;;;;;;6250112;28;20548;-68
2022/06/24 07:48:32;;;;;;;7.57;6.95;;;34.10;67.70;;;;;;6250551;28;20663;-68
2022/06/24 07:51:39;;;;;;;7.03;6.53;;;33.40;69.00;;;;;;6250082;28;20243;-68
2022/06/24 07:54:42;;;;;;;8.30;7.70;;;33.20;69.50;;;;;;6245949;28;20235;-68
2022/06/24 07:57:44;;;;;;;8.25;7.75;;;32.80;71.00;;;;;;6250314;28;20613;-69
2022/06/24 08:00:49;;;;;;;8.95;8.15;;;32.40;71.00;;;;;;6250056;28;20236;-69
2022/06/24 08:03:52;;;;;;;7.57;7.07;;;32.00;72.40;;;;;;6250886;28;20656;-69
2022/06/24 08:06:56;;;;;;;9.00;8.20;;;31.60;72.80;;;;;;6251588;28;20235;-69
2022/06/24 08:09:59;;;;;;;7.25;6.75;;;31.00;75.20;;;;;;6251581;28;20234;-69
2022/06/24 08:13:02;;;;;;;8.50;7.90;;;30.90;75.60;;;;;;6249985;28;20425;-69
2022/06/24 08:16:07;;;;;;;8.83;8.23;;;30.60;76.80;;;;;;6250276;28;20249;-69
2022/06/24 08:19:11;;;;;;;9.40;8.70;;;30.30;77.60;;;;;;6246535;28;20220;-68
2022/06/24 08:22:14;;;;;;;8.50;7.90;;;30.00;79.20;;;;;;6247601;28;20232;-68
2022/06/24 08:25:22;;;;;;;8.90;8.20;;;30.20;80.00;;;;;;6224364;28;20335;-69
2022/06/24 08:28:26;;;;;;;7.87;7.17;;;30.60;79.40;;;;;;6220999;28;20242;-68
2022/06/24 08:31:31;;;;;;;8.93;8.03;;;30.80;77.30;;;;;;6230279;28;20335;-69
2022/06/24 08:34:34;;;;;;;9.40;8.70;;;30.90;76.90;;;;;;6231010;28;20232;-69
2022/06/24 08:37:51;;;;;;;8.17;7.60;;;31.00;76.90;;;;;;6226222;28;20309;-70
2022/06/24 08:40:55;;;;;;;8.05;7.35;;;31.30;76.80;;;;;;6239823;28;20675;-68
2022/06/24 08:43:59;;;;;;;8.35;7.65;;;31.40;75.90;;;;;;6218994;28;20224;-69
2022/06/24 08:47:04;;;;;;;7.60;7.10;;;30.90;75.50;;;;;;6231916;28;20323;-70
2022/06/24 08:50:08;;;;;;;8.50;7.90;;;30.90;77.30;;;;;;6231718;28;20228;-68
2022/06/24 08:53:12;;;;;;;8.50;7.90;;;30.90;76.40;;;;;;6231798;28;20315;-69
2022/06/24 08:56:15;;;;;;;7.57;6.97;;;30.70;77.10;;;;;;6256873;28;20231;-69
2022/06/24 08:59:18;;;;;;;8.20;7.70;;;30.50;78.00;;;;;;6256817;28;20238;-69
2022/06/24 09:02:23;;;;;;;13.73;7.90;;;30.30;77.40;;;;;;6250550;28;20617;-67
2022/06/24 09:05:27;;;;;;;8.00;7.50;;;29.80;79.40;;;;;;6253883;28;20646;-68
2022/06/24 09:08:34;;;;;;;8.70;7.90;;;29.20;81.40;;;;;;6254265;28;20224;-68
2022/06/24 09:11:39;;;;;;;8.43;7.63;;;29.00;83.90;;;;;;6253765;28;20200;-67
2022/06/24 09:14:48;;;;;;;9.73;8.73;;;28.60;85.00;;;;;;6254211;28;20216;-68
2022/06/24 09:17:54;;;;;;;9.03;8.27;;;28.50;86.10;;;;;;6254816;28;20228;-69
2022/06/24 09:20:58;;;;;;;8.47;7.63;;;28.30;86.20;;;;;;6234562;28;20238;-68
2022/06/24 09:24:04;;;;;;;9.00;8.23;;;28.50;86.90;;;;;;6244986;28;20224;-68
2022/06/24 09:27:08;;;;;;;8.50;7.70;;;28.60;85.50;;;;;;6251945;28;20223;-64
2022/06/24 09:30:12;;;;;;;9.73;8.90;;;28.90;84.80;;;;;;6251959;28;20240;-64
2022/06/24 09:33:18;;;;;;;8.30;7.70;;;29.20;84.70;;;;;;6251709;28;20560;-64
2022/06/24 09:36:38;;;;;;;8.00;7.40;;;29.30;84.00;;;;;;6252020;28;20237;-63
2022/06/24 09:39:41;;;;;;;8.43;7.50;;;29.20;83.50;;;;;;6253721;28;20554;-65
2022/06/24 09:42:51;;;;;;;9.33;8.60;;;29.30;83.90;;;;;;6249548;28;20223;-64
2022/06/24 09:45:55;;;;;;;9.20;8.50;;;28.70;85.80;;;;;;6242570;28;20230;-65
2022/06/24 09:49:05;;;;;;;8.13;7.53;;;29.00;85.80;;;;;;6243001;28;20682;-65
2022/06/24 09:52:10;;;;;;;9.10;8.37;;;29.30;85.10;;;;;;6251063;28;20236;-65
2022/06/24 09:55:13;;;;;;;8.50;7.80;;;29.60;83.50;;;;;;6234117;28;20315;-66
2022/06/24 09:58:17;;;;;;;8.87;8.13;;;29.40;83.90;;;;;;6240434;28;20682;-66
2022/06/24 10:01:20;;;;;;;8.80;7.97;;;29.30;84.40;;;;;;6234349;28;20231;-68
2022/06/24 10:04:26;;;;;;;8.27;7.57;;;29.30;84.60;;;;;;6231033;28;20229;-66
2022/06/24 10:07:34;;;;;;;8.20;7.50;;;29.00;84.60;;;;;;6235481;28;20228;-66
2022/06/24 10:10:45;;;;;;;9.57;8.67;;;29.20;85.00;;;;;;6250037;28;20238;-65
2022/06/24 10:13:48;;;;;;;8.13;7.53;;;29.50;84.60;;;;;;6252851;28;20687;-65
2022/06/24 10:16:52;;;;;;;7.77;7.07;;;30.00;84.50;;;;;;6253021;28;20577;-68
2022/06/24 10:19:58;;;;;;;8.03;7.50;;;30.20;83.60;;;;;;6250847;28;20592;-64
2022/06/24 10:23:01;;;;;;;9.30;8.50;;;29.80;84.10;;;;;;6252298;28;20266;-66
2022/06/24 10:26:16;;;;;;;8.30;7.60;;;29.80;84.30;;;;;;6252395;28;20699;-65
2022/06/24 10:29:27;;;;;;;9.17;8.57;;;29.90;84.10;;;;;;6252102;28;20323;-65
2022/06/24 10:32:31;;;;;;;8.97;7.80;;;30.10;83.70;;;;;;6251903;28;20648;-64
2022/06/24 10:36:02;;;;;;;8.83;8.07;;;30.10;83.00;;;;;;6252321;28;20200;-66
2022/06/24 10:39:11;;;;;;;8.10;7.50;;;29.90;82.40;;;;;;6239245;28;20225;-65
2022/06/24 10:42:15;;;;;;;8.20;7.60;;;29.20;84.20;;;;;;6227042;28;20243;-65
2022/06/24 10:45:35;;;;;;;8.40;7.60;;;28.70;85.40;;;;;;6232390;28;20240;-64
2022/06/24 10:49:01;;;;;;;9.47;8.77;;;28.60;86.30;;;;;;6226520;28;20229;-64
2022/06/24 10:52:31;;;;;;;8.90;8.20;;;28.10;87.00;;;;;;6225719;28;20236;-64
2022/06/24 10:55:39;;;;;;;9.03;8.20;;;28.00;88.60;;;;;;6227125;28;20570;-64
2022/06/24 10:58:42;;;;;;;8.30;7.50;;;27.90;89.10;;;;;;6239968;28;20216;-63
2022/06/24 11:01:47;;;;;;;7.90;7.30;;;28.00;89.00;;;;;;6251919;28;20302;-63
2022/06/24 11:04:51;;;;;;;8.27;7.47;;;28.40;88.30;;;;;;6251318;28;20270;-64
2022/06/24 11:07:55;;;;;;;7.90;7.30;;;28.70;86.70;;;;;;6246092;28;20232;-63
2022/06/24 11:10:58;;;;;;;8.97;7.97;;;29.00;88.50;;;;;;6250656;28;20250;-64
2022/06/24 11:14:16;;;;;;;8.53;7.83;;;29.50;85.90;;;;;;6246230;28;20220;-65
2022/06/24 11:17:23;;;;;;;8.37;7.67;;;29.90;85.00;;;;;;6232767;28;20568;-65
2022/06/24 11:20:26;;;;;;;8.77;8.00;;;29.90;84.80;;;;;;6236202;28;20236;-64
2022/06/24 11:23:33;;;;;;;8.57;7.80;;;30.10;83.50;;;;;;6226455;28;20246;-64
2022/06/24 11:26:36;;;;;;;8.37;7.57;;;30.40;82.00;;;;;;6226846;28;20189;-63
2022/06/24 11:29:53;;;;;;;8.13;7.33;;;30.30;82.20;;;;;;6232154;28;20330;-64
2022/06/24 11:32:58;;;;;;;9.50;8.70;;;30.20;84.00;;;;;;6238186;28;20236;-63
2022/06/24 11:36:03;;;;;;;8.70;7.90;;;29.90;82.80;;;;;;6246089;28;20257;-64
2022/06/24 11:39:10;;;;;;;8.73;7.97;;;29.50;84.30;;;;;;6251477;28;20224;-63
2022/06/24 11:42:15;;;;;;;9.40;8.70;;;29.10;85.90;;;;;;6249976;28;20569;-64
2022/06/24 11:45:31;;;;;;;8.63;7.93;;;29.00;87.40;;;;;;6250345;28;20236;-64
2022/06/24 11:48:35;;;;;;;9.20;8.40;;;29.30;87.20;;;;;;6250292;28;20236;-65
2022/06/24 11:51:40;;;;;;;8.43;7.23;;;29.20;87.20;;;;;;6249845;28;20227;-64
2022/06/24 11:54:44;;;;;;;8.47;7.73;;;29.40;87.30;;;;;;6249589;28;20223;-64
2022/06/24 11:57:53;;;;;;;9.47;8.77;;;29.50;86.10;;;;;;6249621;28;20233;-65
2022/06/24 12:00:57;;;;;;;8.50;7.80;;;29.40;86.60;;;;;;6249814;28;20228;-65
2022/06/24 12:04:02;;;;;;;9.33;8.50;;;29.50;86.40;;;;;;6236470;28;20224;-67
2022/06/24 12:07:07;;;;;;;10.10;9.00;;;29.60;86.70;;;;;;6251702;28;20766;-65
2022/06/24 12:10:12;;;;;;;10.13;9.23;;;29.50;86.60;;;;;;6238786;28;20274;-63
2022/06/24 12:13:25;;;;;;;9.53;8.80;;;29.10;88.10;;;;;;6237957;28;20677;-65
2022/06/24 12:16:29;;;;;;;10.10;9.30;;;28.10;90.40;;;;;;6227255;28;20229;-65
2022/06/24 12:19:35;;;;;;;9.13;8.33;;;27.50;91.70;;;;;;6226481;28;20228;-65
2022/06/24 12:22:38;;;;;;;8.67;8.00;;;27.40;92.30;;;;;;6249781;28;20227;-65
2022/06/24 12:25:44;;;;;;;9.20;7.97;;;27.10;92.90;;;;;;6250024;28;20239;-65
2022/06/24 12:29:00;;;;;;;9.90;8.43;;;27.20;93.40;;;;;;6249814;28;20223;-65
2022/06/24 12:32:05;;;;;;;9.93;9.03;;;27.30;93.40;;;;;;6249647;28;20252;-65
2022/06/24 12:35:09;;;;;;;11.70;9.50;;;27.50;93.40;;;;;;6250449;28;20528;-65
2022/06/24 12:38:13;;;;;;;9.30;8.50;;;27.60;93.10;;;;;;6249255;28;20246;-65
2022/06/24 12:41:19;;;;;;;8.57;7.67;;;27.60;93.00;;;;;;6249240;28;20219;-65
2022/06/24 12:44:23;;;;;;;9.93;8.93;;;27.70;93.00;;;;;;6247989;28;20239;-65
2022/06/24 12:50:57;;;;;;;9.30;8.50;;;28.50;92.20;;;;;;6224122;28;20237;-65
2022/06/24 12:54:00;;;;;;;9.57;8.77;;;28.70;91.60;;;;;;6233475;28;20234;-66
2022/06/24 12:57:06;;;;;;;9.60;8.80;;;28.60;91.50;;;;;;6249052;28;20234;-66
2022/06/24 13:00:11;;;;;;;9.83;8.90;;;28.60;91.90;;;;;;6249313;28;20268;-65
2022/06/24 13:03:20;;;;;;;10.67;9.90;;;28.70;91.60;;;;;;6248572;28;20232;-65
2022/06/24 13:06:23;;;;;;;8.80;8.10;;;28.80;91.30;;;;;;6249588;28;20232;-65
2022/06/24 13:09:26;;;;;;;9.20;8.23;;;29.10;91.30;;;;;;6249649;28;20238;-65
2022/06/24 13:12:31;;;;;;;9.13;8.43;;;29.40;90.70;;;;;;6253423;28;20319;-65
2022/06/24 13:15:34;;;;;;;9.47;8.67;;;29.60;90.50;;;;;;6249528;28;20235;-66
2022/06/24 13:18:38;;;;;;;9.10;8.30;;;29.70;90.00;;;;;;6253882;28;20228;-65
2022/06/24 13:21:41;;;;;;;9.67;8.87;;;29.70;89.80;;;;;;6253747;28;20227;-65
2022/06/24 13:24:44;;;;;;;13.77;8.87;;;29.70;90.00;;;;;;6253146;28;20275;-66
2022/06/24 13:27:49;;;;;;;11.30;9.90;;;29.70;90.00;;;;;;6253141;28;20216;-67
2022/06/24 13:30:52;;;;;;;10.87;8.90;;;29.70;90.30;;;;;;6253450;28;20236;-66
2022/06/24 13:33:55;;;;;;;9.87;9.07;;;29.90;90.00;;;;;;6253243;28;20231;-67
2022/06/24 13:36:59;;;;;;;9.90;9.07;;;30.00;89.60;;;;;;6253347;28;20236;-65
2022/06/24 13:40:02;;;;;;;10.67;8.80;;;30.00;89.30;;;;;;6253433;28;20644;-65
2022/06/24 13:43:07;;;;;;;10.37;8.97;;;29.90;89.70;;;;;;6253226;28;20242;-66
2022/06/24 13:46:10;;;;;;;13.10;9.33;;;29.80;90.10;;;;;;6233296;28;20233;-65
2022/06/24 13:49:13;;;;;;;9.67;8.80;;;29.50;90.40;;;;;;6228071;28;20239;-64
2022/06/24 13:52:16;;;;;;;11.23;10.03;;;29.30;90.70;;;;;;6228251;28;20251;-65
2022/06/24 13:55:19;;;;;;;10.40;9.40;;;29.30;91.20;;;;;;6228435;28;20252;-66
2022/06/24 13:58:24;;;;;;;11.13;10.17;;;29.30;90.90;;;;;;6228092;28;20307;-66
2022/06/24 14:01:27;;;;;;;12.93;10.50;;;29.30;91.00;;;;;;6228623;28;20229;-66
2022/06/24 14:04:31;;;;;;;10.60;9.43;;;29.40;90.90;;;;;;6228158;28;20371;-66
2022/06/24 14:07:34;;;;;;;11.30;9.77;;;29.40;90.90;;;;;;6228114;28;20225;-66
2022/06/24 14:10:38;;;;;;;10.97;9.60;;;29.30;91.10;;;;;;6229246;28;20232;-66
2022/06/24 14:13:42;;;;;;;11.57;10.43;;;29.00;91.70;;;;;;6229257;28;20242;-66
2022/06/24 14:16:46;;;;;;;9.67;8.50;;;28.90;91.70;;;;;;6252041;28;20239;-66
2022/06/24 14:20:11;;;;;;;9.43;8.47;;;29.00;91.60;;;;;;6242967;28;20236;-66
2022/06/24 14:26:34;;;;;;;9.83;8.50;;;29.20;90.80;;;;;;6251875;28;20212;-66
2022/06/24 14:29:40;;;;;;;10.20;9.30;;;29.10;90.80;;;;;;6252121;28;20573;-66
2022/06/24 14:32:43;;;;;;;13.53;10.63;;;28.80;91.50;;;;;;6251299;28;20615;-66
2022/06/24 14:35:46;;;;;;;10.27;9.20;;;28.60;91.90;;;;;;6252255;28;20219;-66
2022/06/24 14:42:10;;;;;;;10.07;9.07;;;28.70;91.60;;;;;;6251361;28;20242;-66
2022/06/24 14:45:14;;;;;;;8.93;8.20;;;28.80;91.30;;;;;;6251714;28;20224;-66
2022/06/24 14:48:18;;;;;;;13.07;9.30;;;28.80;91.70;;;;;;6251510;28;20243;-66
2022/06/24 14:51:21;;;;;;;10.10;9.20;;;28.90;92.20;;;;;;6251580;28;20236;-66
2022/06/24 14:54:24;;;;;;;9.20;8.30;;;28.90;92.10;;;;;;6251284;28;20239;-66
2022/06/24 14:57:29;;;;;;;11.40;9.60;;;28.90;92.30;;;;;;6251816;28;20228;-64
2022/06/24 15:00:35;;;;;;;9.10;8.23;;;29.00;92.30;;;;;;6251752;28;20302;-68
2022/06/24 15:03:39;;;;;;;9.47;8.57;;;29.00;91.90;;;;;;6251546;28;20259;-64
2022/06/24 15:06:42;;;;;;;9.43;8.60;;;28.90;91.60;;;;;;6251008;28;20232;-65
2022/06/24 15:09:45;;;;;;;11.30;8.53;;;28.80;91.60;;;;;;6251701;28;20231;-65
2022/06/24 15:12:48;;;;;;;10.17;9.30;;;28.70;92.30;;;;;;6250538;28;20807;-66
2022/06/24 15:15:53;;;;;;;9.87;9.00;;;28.60;92.30;;;;;;6245517;28;20223;-66
2022/06/24 15:18:56;;;;;;;9.23;8.40;;;28.60;92.70;;;;;;6251044;28;20290;-66
2022/06/24 15:21:59;;;;;;;10.60;8.57;;;28.50;93.30;;;;;;6246724;28;20254;-66
2022/06/24 15:25:04;;;;;;;9.80;9.10;;;28.60;93.60;;;;;;6249514;28;20220;-66
2022/06/24 15:28:07;;;;;;;10.63;9.53;;;28.50;94.30;;;;;;6250507;28;20560;-67
2022/06/24 15:31:12;;;;;;;13.30;10.40;;;28.50;95.00;;;;;;6251292;28;20235;-67
2022/06/24 15:34:16;;;;;;;14.27;8.23;;;28.40;97.00;;;;;;6252496;28;20244;-66
2022/06/24 15:37:19;;;;;;;12.43;7.57;;;27.60;95.90;;;;;;6251228;28;20232;-66
2022/06/24 15:40:23;;;;;;;11.50;8.00;;;26.40;93.60;;;;;;6250378;28;20231;-67
2022/06/24 15:43:26;;;;;;;9.80;7.90;;;26.50;95.00;;;;;;6250121;28;20231;-67
2022/06/24 15:46:30;;;;;;;9.57;8.57;;;27.00;94.30;;;;;;6226060;28;20677;-66
2022/06/24 15:49:34;;;;;;;12.17;7.30;;;27.10;94.70;;;;;;6226112;28;20266;-67
2022/06/24 15:52:37;;;;;;;17.00;9.30;;;27.30;95.50;;;;;;6230650;28;20558;-67
2022/06/24 15:55:40;;;;;;;12.23;8.43;;;27.70;94.40;;;;;;6225672;28;20232;-67
2022/06/24 15:58:43;;;;;;;13.40;9.60;;;28.10;94.60;;;;;;6231628;28;20686;-66
2022/06/24 16:01:47;;;;;;;13.93;9.17;;;28.10;94.50;;;;;;6249889;28;20663;-67
2022/06/24 16:04:51;;;;;;;10.40;9.40;;;28.10;94.70;;;;;;6250047;28;20259;-66
2022/06/24 16:07:54;;;;;;;9.77;8.77;;;28.00;95.30;;;;;;6250960;28;20242;-66
2022/06/24 16:10:59;;;;;;;11.47;7.70;;;27.80;95.90;;;;;;6253959;28;20232;-66